Weather at Lorn and Islands District General Hospital Helipad

Public forecast

Using degrees Celsius for public forecast. Weather courtesy of forecast.io.

Closest aviation weather report (METAR) to Lorn and Islands District General Hospital Helipad

Closest report is Oban Airport, 4.6 nm (8.5 km) NNE.

2024/05/21 12:20 (retrieved 31 minutes ago)

EGEO 211220Z 28009KT CAVOK 18/05 Q1011

Closest aviation forecast (TAF) to Lorn and Islands District General Hospital Helipad

Closest forecast is Glasgow International Airport, 47.1 nm (87.2 km) SE.

2024/05/21 12:00 (retrieved 51 minutes ago)

TAF EGPF 211101Z 2112/2212 05007KT 9999 FEW040 PROB30 TEMPO 2114/2121 7000 SHRA TEMPO 2121/2210 BKN012 PROB40 TEMPO 2122/2204 6000 BKN008 TEMPO 2210/2212 6000 SHRA